Oconto, Wisconsin
Current Conditions -  °F | °C
As of 1:15 PM on Sunday 21 Dec 2014 (Local Time) from KOCQ Reporting Station
Overcast Overcast  
Wind Chill: -2°   Ceiling: 1200
Heat Index:   Visibility: 5mi
Dew Point:   Wind: 6mph
Humidity: 92%   Direction: 180°S
Pressure: 30.03"   Gusts: NA
Location:  44.89°N, 87.86°W
Report Text: KOCQ 211915Z AUTO 18005KT 5SM OVC012 01/00 A3003 RMK AO1 T00120001
Loading
Personal Weather Stations






























Interactive Weather Map New forecast layout! Learn more

10-Day Weather Forecast

Advertisements
Track Severe Weather on mobile